createdAt,value
2023-05-16T00:02:07.586Z,61.72
2023-05-16T00:04:36.839Z,61.70
2023-05-16T00:07:05.021Z,61.77
2023-05-16T00:09:32.849Z,61.77
2023-05-16T00:12:00.991Z,61.92
2023-05-16T00:14:28.984Z,61.90
2023-05-16T00:16:59.731Z,61.87
2023-05-16T00:19:30.174Z,61.94
2023-05-16T00:21:57.939Z,61.92
2023-05-16T00:24:25.966Z,61.98
2023-05-16T00:26:53.811Z,61.98
2023-05-16T00:29:24.462Z,61.98
2023-05-16T00:31:52.567Z,62.01
2023-05-16T00:34:21.481Z,62.06
2023-05-16T00:36:52.999Z,62.03
2023-05-16T00:39:21.068Z,62.08
2023-05-16T00:41:49.177Z,62.05
2023-05-16T00:44:17.418Z,62.11
2023-05-16T00:46:45.539Z,62.14
2023-05-16T00:49:13.493Z,62.09
2023-05-16T00:51:41.997Z,62.09
2023-05-16T00:54:10.781Z,62.08
2023-05-16T00:56:38.547Z,62.15
2023-05-16T00:59:06.817Z,62.12
2023-05-16T01:01:35.416Z,62.12
2023-05-16T01:04:03.727Z,62.09
2023-05-16T01:06:33.786Z,62.08
2023-05-16T01:09:01.772Z,62.08
2023-05-16T01:11:39.684Z,62.07
2023-05-16T01:14:17.147Z,62.11
2023-05-16T01:16:51.235Z,62.00
2023-05-16T01:19:25.229Z,62.09
2023-05-16T01:22:16.446Z,62.03
2023-05-16T01:24:53.779Z,62.01
2023-05-16T01:27:23.202Z,62.02
2023-05-16T01:29:56.181Z,62.10
2023-05-16T01:32:24.797Z,62.02
2023-05-16T01:34:53.360Z,61.98
2023-05-16T01:37:34.130Z,62.01
2023-05-16T01:40:13.050Z,62.04
2023-05-16T01:42:43.886Z,61.98
2023-05-16T01:45:26.954Z,62.00
2023-05-16T01:48:07.521Z,61.98
2023-05-16T01:50:39.129Z,61.98
2023-05-16T01:53:11.368Z,61.92
2023-05-16T01:55:58.401Z,61.94
2023-05-16T01:58:28.629Z,61.92
2023-05-16T02:01:03.808Z,61.90
2023-05-16T02:03:32.126Z,61.95
2023-05-16T02:06:01.090Z,61.94
2023-05-16T02:08:29.563Z,61.92
2023-05-16T02:10:57.402Z,61.93
2023-05-16T02:13:25.205Z,61.92
2023-05-16T02:15:53.107Z,61.90
2023-05-16T02:18:20.992Z,61.90
2023-05-16T02:20:48.894Z,61.94
2023-05-16T02:23:17.004Z,61.87
2023-05-16T02:25:44.883Z,61.96
2023-05-16T02:28:12.820Z,61.92
2023-05-16T02:30:41.313Z,61.96
2023-05-16T02:33:10.192Z,62.04
2023-05-16T02:35:38.119Z,61.98
2023-05-16T02:38:06.047Z,61.96
2023-05-16T02:40:33.973Z,62.00
2023-05-16T02:43:01.883Z,62.00
2023-05-16T02:45:29.822Z,62.09
2023-05-16T02:47:57.811Z,62.17
2023-05-16T02:50:25.550Z,62.29
2023-05-16T02:52:53.590Z,62.34
2023-05-16T02:55:22.692Z,62.43
2023-05-16T02:57:51.197Z,62.43
2023-05-16T03:00:19.875Z,62.56
2023-05-16T03:02:48.313Z,62.57
2023-05-16T03:05:17.188Z,62.69
2023-05-16T03:07:45.483Z,62.74
2023-05-16T03:10:13.393Z,62.65
2023-05-16T03:12:41.355Z,62.73
2023-05-16T03:15:09.795Z,62.77
2023-05-16T03:17:37.767Z,62.80
2023-05-16T03:20:09.037Z,62.81
2023-05-16T03:22:37.229Z,62.81
2023-05-16T03:25:05.555Z,62.95
2023-05-16T03:27:33.538Z,62.95
2023-05-16T03:30:01.344Z,62.94
2023-05-16T03:32:29.633Z,63.00
2023-05-16T03:34:57.534Z,62.95
2023-05-16T03:37:26.224Z,62.95
2023-05-16T03:39:54.420Z,62.96
2023-05-16T03:42:22.341Z,63.02
2023-05-16T03:44:50.182Z,63.00
2023-05-16T03:47:18.008Z,63.08
2023-05-16T03:49:45.778Z,63.07
2023-05-16T03:52:13.578Z,63.04
2023-05-16T03:54:41.428Z,63.04
2023-05-16T03:57:09.568Z,63.14
2023-05-16T03:59:39.114Z,63.07
2023-05-16T04:02:07.112Z,63.13
2023-05-16T04:04:35.377Z,63.15
2023-05-16T04:07:03.452Z,63.29
2023-05-16T04:09:31.434Z,63.38
2023-05-16T04:12:02.012Z,63.38
2023-05-16T04:14:30.043Z,63.31
2023-05-16T04:16:58.027Z,63.39
2023-05-16T04:19:26.198Z,63.47
2023-05-16T04:21:54.399Z,63.52
2023-05-16T04:24:26.464Z,63.48
2023-05-16T04:26:55.361Z,63.52
2023-05-16T04:29:23.630Z,63.56
2023-05-16T04:31:51.658Z,63.65
2023-05-16T04:34:19.661Z,63.62
2023-05-16T04:36:47.700Z,63.65
2023-05-16T04:39:15.509Z,63.66
2023-05-16T04:41:43.383Z,63.71
2023-05-16T04:44:11.541Z,63.73
2023-05-16T04:46:39.867Z,63.70
2023-05-16T04:49:08.324Z,63.71
2023-05-16T04:51:36.316Z,63.77
2023-05-16T04:54:05.376Z,63.71
2023-05-16T04:56:33.172Z,63.79
2023-05-16T04:59:00.919Z,63.77
2023-05-16T05:01:28.965Z,63.83
2023-05-16T05:03:56.866Z,63.84
2023-05-16T05:06:24.709Z,63.80
2023-05-16T05:08:53.156Z,63.84
2023-05-16T05:11:21.534Z,63.89
2023-05-16T05:13:50.801Z,63.94
2023-05-16T05:16:20.862Z,63.91
2023-05-16T05:18:48.785Z,64.01
2023-05-16T05:21:16.913Z,64.00
2023-05-16T05:23:44.690Z,64.01
2023-05-16T05:26:12.661Z,63.96
2023-05-16T05:28:43.657Z,64.04
2023-05-16T05:31:16.676Z,64.03
2023-05-16T05:33:44.551Z,64.07
2023-05-16T05:36:12.452Z,64.12
2023-05-16T05:38:40.513Z,64.09
2023-05-16T05:41:08.415Z,64.15
2023-05-16T05:43:36.359Z,64.18
2023-05-16T05:46:04.610Z,64.11
2023-05-16T05:48:33.128Z,64.21
2023-05-16T05:51:01.253Z,64.26
2023-05-16T05:53:29.438Z,64.22
2023-05-16T05:55:57.257Z,64.27
2023-05-16T05:58:25.328Z,64.34
2023-05-16T06:00:53.056Z,64.37
2023-05-16T06:03:21.723Z,64.40
2023-05-16T06:05:50.106Z,64.39
2023-05-16T06:08:18.040Z,64.47
2023-05-16T06:10:46.199Z,64.38
2023-05-16T06:13:14.035Z,64.43
2023-05-16T06:15:41.872Z,64.48
2023-05-16T06:18:09.907Z,64.35
2023-05-16T06:20:37.912Z,64.41
2023-05-16T06:23:05.887Z,64.41
2023-05-16T06:25:33.659Z,64.49
2023-05-16T06:28:01.675Z,64.46
2023-05-16T06:30:29.490Z,64.53
2023-05-16T06:32:57.297Z,64.59
2023-05-16T06:35:25.737Z,64.63
2023-05-16T06:37:53.679Z,64.67
2023-05-16T06:40:21.514Z,64.68
2023-05-16T06:42:49.333Z,64.75
2023-05-16T06:45:17.550Z,64.78
2023-05-16T06:47:45.575Z,64.76
2023-05-16T06:50:14.036Z,64.75
2023-05-16T06:52:42.287Z,64.73
2023-05-16T06:55:10.789Z,64.78
2023-05-16T06:57:38.863Z,64.81
2023-05-16T07:00:08.528Z,64.79
2023-05-16T07:02:36.448Z,64.87
2023-05-16T07:05:04.757Z,64.95
2023-05-16T07:07:32.615Z,64.91
2023-05-16T07:10:01.007Z,64.97
2023-05-16T07:12:28.960Z,64.94
2023-05-16T07:14:56.964Z,64.93
2023-05-16T07:17:24.868Z,64.95
2023-05-16T07:19:52.783Z,64.99
2023-05-16T07:22:20.801Z,65.02
2023-05-16T07:24:49.060Z,64.98
2023-05-16T07:27:17.023Z,64.99
2023-05-16T07:29:44.800Z,65.08
2023-05-16T07:32:12.711Z,64.97
2023-05-16T07:34:41.059Z,64.93
2023-05-16T07:37:12.916Z,64.94
2023-05-16T07:39:40.971Z,65.01
2023-05-16T07:42:09.376Z,64.97
2023-05-16T07:44:37.353Z,65.02
2023-05-16T07:47:05.405Z,65.01
2023-05-16T07:49:33.380Z,65.02
2023-05-16T07:52:01.470Z,65.05
2023-05-16T07:54:29.335Z,65.03
2023-05-16T07:56:57.292Z,65.01
2023-05-16T07:59:25.255Z,64.97
2023-05-16T08:01:53.232Z,65.03
2023-05-16T08:04:21.111Z,65.07
2023-05-16T08:06:50.018Z,65.13
2023-05-16T08:09:17.962Z,65.20
2023-05-16T08:11:46.474Z,65.16
2023-05-16T08:14:14.477Z,65.16
2023-05-16T08:16:42.524Z,65.31
2023-05-16T08:19:10.705Z,65.34
2023-05-16T08:21:38.664Z,65.36
2023-05-16T08:24:06.789Z,65.37
2023-05-16T08:26:35.721Z,65.38
2023-05-16T08:29:03.716Z,65.40
2023-05-16T08:31:31.836Z,65.41
2023-05-16T08:34:01.630Z,65.41
2023-05-16T08:36:29.689Z,65.48
2023-05-16T08:38:57.681Z,65.51
2023-05-16T08:41:26.157Z,65.55
2023-05-16T08:43:54.665Z,65.56
2023-05-16T08:46:23.574Z,65.54
2023-05-16T08:48:52.844Z,65.50
2023-05-16T08:51:21.487Z,65.53
2023-05-16T08:54:01.578Z,65.54
2023-05-16T08:56:29.883Z,65.54
2023-05-16T08:58:58.323Z,65.48
2023-05-16T09:01:26.522Z,65.48
2023-05-16T09:03:55.681Z,65.46
2023-05-16T09:06:24.880Z,65.48
2023-05-16T09:08:56.529Z,65.46
2023-05-16T09:11:24.579Z,65.45
2023-05-16T09:13:52.445Z,65.59
2023-05-16T09:16:21.198Z,65.70
2023-05-16T09:18:57.364Z,65.78
2023-05-16T09:21:29.914Z,65.93
2023-05-16T09:24:02.735Z,65.96
2023-05-16T09:26:31.861Z,65.95
2023-05-16T09:28:59.705Z,66.11
2023-05-16T09:31:30.744Z,66.17
2023-05-16T09:33:58.856Z,66.18
2023-05-16T09:36:26.768Z,66.18
2023-05-16T09:38:54.705Z,66.19
2023-05-16T09:41:23.091Z,66.25
2023-05-16T09:43:51.158Z,66.20
2023-05-16T09:46:20.011Z,66.15
2023-05-16T09:48:48.214Z,66.12
2023-05-16T09:51:16.479Z,66.11
2023-05-16T09:53:44.384Z,66.08
2023-05-16T09:56:12.903Z,66.07
2023-05-16T09:58:42.195Z,65.98
2023-05-16T10:01:10.996Z,65.97
2023-05-16T10:03:40.132Z,65.99
2023-05-16T10:06:09.168Z,65.91
2023-05-16T10:08:37.696Z,65.83
2023-05-16T10:11:06.539Z,65.88
2023-05-16T10:13:35.989Z,65.79
2023-05-16T10:16:11.501Z,65.80
2023-05-16T10:18:40.618Z,65.71
2023-05-16T10:21:11.972Z,65.74
2023-05-16T10:23:44.240Z,65.60
2023-05-16T10:26:14.337Z,65.64
2023-05-16T10:28:42.766Z,65.56
2023-05-16T10:31:11.439Z,65.62
2023-05-16T10:33:39.744Z,65.49
2023-05-16T10:36:12.135Z,65.59
2023-05-16T10:38:40.729Z,65.60
2023-05-16T10:41:09.773Z,65.53
2023-05-16T10:43:37.805Z,65.47
2023-05-16T10:46:07.796Z,65.44
2023-05-16T10:48:36.965Z,65.44
2023-05-16T10:51:25.152Z,65.49
2023-05-16T10:54:04.852Z,65.34
2023-05-16T10:56:33.249Z,65.36
2023-05-16T10:59:01.468Z,65.24
2023-05-16T11:01:30.541Z,65.23
2023-05-16T11:03:58.601Z,65.25
2023-05-16T11:06:27.402Z,65.24
2023-05-16T11:09:09.882Z,65.13
2023-05-16T11:11:48.617Z,65.11
2023-05-16T11:14:22.419Z,65.01
2023-05-16T11:17:00.183Z,65.01
2023-05-16T11:19:30.950Z,65.00
2023-05-16T11:22:12.125Z,64.97
2023-05-16T11:24:49.003Z,64.86
2023-05-16T11:27:24.473Z,64.79
2023-05-16T11:29:53.086Z,64.70
2023-05-16T11:32:22.469Z,64.69
2023-05-16T11:34:52.196Z,64.59
2023-05-16T11:37:21.107Z,64.57
2023-05-16T11:39:49.289Z,64.57
2023-05-16T11:42:18.146Z,64.43
2023-05-16T11:44:46.659Z,64.43
2023-05-16T11:47:14.690Z,64.38
2023-05-16T11:49:43.485Z,64.33
2023-05-16T11:52:11.579Z,64.15
2023-05-16T11:54:40.641Z,64.25
2023-05-16T11:57:09.042Z,64.21
2023-05-16T11:59:37.338Z,64.15
2023-05-16T12:02:06.136Z,64.08
2023-05-16T12:04:36.853Z,64.10
2023-05-16T12:07:05.956Z,64.05
2023-05-16T12:09:33.975Z,63.94
2023-05-16T12:12:04.888Z,63.97
2023-05-16T12:14:32.880Z,64.02
2023-05-16T12:17:01.373Z,63.77
2023-05-16T12:19:29.645Z,63.82
2023-05-16T12:21:57.636Z,63.70
2023-05-16T12:24:30.339Z,63.77
2023-05-16T12:26:59.079Z,63.60
2023-05-16T12:29:27.144Z,63.50
2023-05-16T12:31:55.176Z,63.55
2023-05-16T12:34:23.490Z,63.47
2023-05-16T12:36:53.550Z,63.51
2023-05-16T12:39:22.984Z,63.53
2023-05-16T12:41:51.129Z,63.47
2023-05-16T12:44:19.901Z,63.53
2023-05-16T12:46:51.591Z,63.51
2023-05-16T12:49:20.687Z,63.39
2023-05-16T12:51:50.492Z,63.40
2023-05-16T12:54:18.719Z,63.56
2023-05-16T12:56:47.065Z,64.04
2023-05-16T12:59:15.558Z,64.02
2023-05-16T13:01:44.774Z,63.94
2023-05-16T13:04:16.941Z,63.97
2023-05-16T13:06:58.471Z,64.01
2023-05-16T13:09:31.415Z,63.99
2023-05-16T13:12:00.982Z,64.04
2023-05-16T13:14:29.080Z,63.87
2023-05-16T13:16:56.930Z,63.84
2023-05-16T13:19:25.184Z,63.90
2023-05-16T13:21:53.490Z,63.83
2023-05-16T13:24:21.568Z,63.93
2023-05-16T13:26:49.444Z,63.82
2023-05-16T13:29:17.299Z,63.86
2023-05-16T13:31:45.310Z,63.96
2023-05-16T13:34:13.460Z,63.91
2023-05-16T13:36:53.650Z,63.95
2023-05-16T13:39:22.712Z,63.90
2023-05-16T13:41:51.588Z,63.80
2023-05-16T13:44:19.845Z,63.92
2023-05-16T13:46:47.893Z,63.83
2023-05-16T13:49:16.162Z,63.74
2023-05-16T13:51:44.353Z,63.91
2023-05-16T13:54:12.409Z,63.86
2023-05-16T13:56:40.585Z,63.89
2023-05-16T13:59:10.825Z,63.79
2023-05-16T14:01:40.494Z,63.93
2023-05-16T14:04:08.506Z,63.69
2023-05-16T14:06:37.595Z,63.83
2023-05-16T14:09:05.485Z,63.76
2023-05-16T14:11:33.352Z,63.80
2023-05-16T14:14:01.178Z,63.79
2023-05-16T14:16:31.219Z,63.77
2023-05-16T14:18:59.333Z,63.74
2023-05-16T14:21:27.289Z,63.90
2023-05-16T14:23:55.259Z,63.87
2023-05-16T14:26:25.768Z,63.92
2023-05-16T14:28:53.794Z,63.80
2023-05-16T14:31:22.150Z,63.89
2023-05-16T14:33:50.564Z,63.84
2023-05-16T14:36:18.614Z,63.75
2023-05-16T14:38:46.786Z,63.86
2023-05-16T14:41:14.791Z,63.75
2023-05-16T14:43:42.707Z,63.79
2023-05-16T14:46:11.276Z,63.76
2023-05-16T14:48:39.555Z,63.80
2023-05-16T14:51:07.395Z,63.75
2023-05-16T14:53:35.475Z,63.74
2023-05-16T14:56:03.980Z,63.83
2023-05-16T14:58:32.246Z,63.79
2023-05-16T15:01:00.123Z,63.77
2023-05-16T15:03:28.029Z,63.65
2023-05-16T15:05:56.062Z,63.70
2023-05-16T15:08:24.061Z,63.63
2023-05-16T15:10:51.899Z,63.64
2023-05-16T15:13:19.762Z,63.67
2023-05-16T15:15:47.731Z,63.70
2023-05-16T15:18:15.901Z,63.63
2023-05-16T15:20:43.800Z,63.57
2023-05-16T15:23:12.169Z,63.65
2023-05-16T15:25:40.137Z,63.71
2023-05-16T15:28:08.047Z,63.59
2023-05-16T15:30:36.140Z,63.60
2023-05-16T15:33:04.092Z,63.49
2023-05-16T15:35:32.569Z,63.52
2023-05-16T15:38:00.738Z,63.45
2023-05-16T15:40:28.735Z,63.40
2023-05-16T15:42:56.639Z,63.52
2023-05-16T15:45:24.565Z,63.54
2023-05-16T15:47:52.502Z,63.33
2023-05-16T15:50:20.814Z,63.35
2023-05-16T15:52:49.293Z,63.38
2023-05-16T15:55:17.320Z,63.35
2023-05-16T15:57:45.358Z,63.36
2023-05-16T16:00:13.757Z,63.28
2023-05-16T16:02:44.971Z,63.25
2023-05-16T16:05:13.064Z,63.32
2023-05-16T16:07:41.340Z,63.35
2023-05-16T16:10:10.037Z,63.25
2023-05-16T16:12:37.976Z,63.28
2023-05-16T16:15:06.934Z,63.42
2023-05-16T16:17:34.941Z,63.28
2023-05-16T16:20:02.884Z,63.23
2023-05-16T16:22:31.816Z,63.29
2023-05-16T16:25:00.808Z,63.19
2023-05-16T16:27:28.846Z,63.16
2023-05-16T16:29:56.760Z,63.12
2023-05-16T16:32:24.718Z,63.06
2023-05-16T16:34:52.864Z,62.98
2023-05-16T16:37:21.132Z,63.07
2023-05-16T16:39:49.016Z,63.04
2023-05-16T16:42:16.888Z,62.96
2023-05-16T16:44:44.943Z,62.82
2023-05-16T16:47:13.186Z,62.80
2023-05-16T16:49:41.624Z,62.84
2023-05-16T16:52:09.805Z,62.80
2023-05-16T16:54:37.697Z,62.93
2023-05-16T16:57:05.751Z,62.74
2023-05-16T16:59:33.632Z,62.78
2023-05-16T17:02:01.564Z,62.73
2023-05-16T17:04:29.563Z,62.78
2023-05-16T17:06:57.983Z,62.69
2023-05-16T17:09:27.266Z,62.64
2023-05-16T17:11:55.257Z,62.70
2023-05-16T17:14:23.823Z,62.65
2023-05-16T17:16:52.206Z,62.68
2023-05-16T17:19:20.214Z,62.72
2023-05-16T17:21:48.243Z,62.70
2023-05-16T17:24:16.330Z,62.59
2023-05-16T17:26:44.298Z,62.61
2023-05-16T17:29:12.688Z,62.78
2023-05-16T17:31:40.657Z,62.65
2023-05-16T17:34:08.850Z,62.75
2023-05-16T17:36:38.236Z,62.78
2023-05-16T17:39:08.285Z,62.86
2023-05-16T17:41:36.558Z,62.88
2023-05-16T17:44:06.941Z,62.91
2023-05-16T17:46:36.889Z,62.97
2023-05-16T17:49:06.780Z,63.00
2023-05-16T17:51:47.583Z,63.10
2023-05-16T17:54:17.049Z,63.04
2023-05-16T17:56:48.742Z,63.06
2023-05-16T17:59:16.825Z,62.98
2023-05-16T18:01:45.051Z,63.08
2023-05-16T18:04:13.441Z,63.19
2023-05-16T18:06:42.023Z,63.22
2023-05-16T18:09:10.500Z,63.22
2023-05-16T18:11:39.559Z,63.18
2023-05-16T18:14:13.141Z,63.19
2023-05-16T18:16:41.141Z,63.23
2023-05-16T18:19:09.208Z,63.27
2023-05-16T18:21:38.359Z,63.29
2023-05-16T18:24:08.569Z,63.25
2023-05-16T18:26:36.850Z,63.26
2023-05-16T18:29:05.528Z,63.37
2023-05-16T18:31:34.111Z,63.29
2023-05-16T18:34:03.028Z,63.33
2023-05-16T18:36:32.104Z,63.38
2023-05-16T18:38:59.955Z,63.45
2023-05-16T18:41:30.177Z,63.48
2023-05-16T18:43:58.078Z,63.58
2023-05-16T18:46:25.953Z,63.53
2023-05-16T18:48:57.752Z,63.67
2023-05-16T18:51:25.843Z,63.72
2023-05-16T18:53:54.047Z,63.83
2023-05-16T18:56:22.588Z,63.85
2023-05-16T18:58:50.948Z,63.89
2023-05-16T19:01:22.339Z,63.94
2023-05-16T19:03:50.481Z,63.90
2023-05-16T19:06:18.620Z,64.09
2023-05-16T19:08:47.994Z,64.21
2023-05-16T19:11:17.729Z,64.13
2023-05-16T19:13:45.932Z,64.24
2023-05-16T19:16:14.283Z,64.36
2023-05-16T19:18:42.374Z,64.33
2023-05-16T19:21:13.793Z,64.31
2023-05-16T19:23:42.041Z,64.29
2023-05-16T19:26:10.200Z,64.45
2023-05-16T19:28:38.286Z,64.49
2023-05-16T19:31:06.971Z,64.62
2023-05-16T19:33:34.969Z,64.44
2023-05-16T19:36:06.117Z,64.50
2023-05-16T19:38:34.012Z,64.53
2023-05-16T19:41:02.015Z,64.54
2023-05-16T19:43:30.022Z,64.58
2023-05-16T19:45:57.920Z,64.67
2023-05-16T19:48:25.952Z,64.71
2023-05-16T19:50:54.142Z,64.71
2023-05-16T19:53:22.556Z,64.79
2023-05-16T19:55:50.712Z,64.79
2023-05-16T19:58:18.647Z,64.74
2023-05-16T20:00:47.384Z,64.81
2023-05-16T20:03:15.693Z,64.91
2023-05-16T20:05:43.845Z,64.88
2023-05-16T20:08:12.311Z,64.82
2023-05-16T20:10:40.492Z,64.85
2023-05-16T20:13:08.576Z,64.86
2023-05-16T20:15:36.544Z,64.80
2023-05-16T20:18:04.709Z,64.77
2023-05-16T20:20:32.824Z,64.80
2023-05-16T20:23:00.903Z,64.87
2023-05-16T20:25:28.895Z,64.79
2023-05-16T20:27:57.048Z,64.89
2023-05-16T20:30:24.924Z,64.70
2023-05-16T20:32:53.024Z,64.71
2023-05-16T20:35:21.038Z,64.64
2023-05-16T20:37:49.143Z,64.55
2023-05-16T20:40:17.412Z,64.68
2023-05-16T20:42:45.224Z,64.54
2023-05-16T20:45:13.074Z,64.55
2023-05-16T20:47:40.908Z,64.60
2023-05-16T20:50:09.142Z,64.44
2023-05-16T20:52:37.198Z,64.40
2023-05-16T20:55:05.590Z,64.33
2023-05-16T20:57:34.194Z,64.32
2023-05-16T21:00:02.251Z,64.12
2023-05-16T21:02:30.551Z,64.14
2023-05-16T21:05:02.185Z,64.04
2023-05-16T21:07:38.052Z,63.98
2023-05-16T21:10:06.518Z,63.92
2023-05-16T21:12:34.452Z,63.80
2023-05-16T21:15:03.829Z,63.87
2023-05-16T21:17:32.031Z,63.70
2023-05-16T21:20:00.660Z,63.77
2023-05-16T21:22:28.677Z,63.63
2023-05-16T21:24:56.619Z,63.60
2023-05-16T21:27:24.457Z,63.53
2023-05-16T21:29:52.571Z,63.45
2023-05-16T21:32:20.397Z,63.45
2023-05-16T21:34:48.277Z,63.28
2023-05-16T21:37:17.000Z,63.31
2023-05-16T21:39:44.848Z,63.23
2023-05-16T21:42:13.160Z,63.16
2023-05-16T21:44:41.451Z,63.17
2023-05-16T21:47:09.283Z,63.24
2023-05-16T21:49:37.290Z,63.31
2023-05-16T21:52:07.998Z,63.17
2023-05-16T21:54:36.200Z,63.30
2023-05-16T21:57:04.300Z,63.23
2023-05-16T21:59:32.074Z,63.28
2023-05-16T22:01:59.961Z,63.17
2023-05-16T22:04:28.124Z,63.16
2023-05-16T22:06:56.167Z,63.14
2023-05-16T22:09:24.250Z,63.03
2023-05-16T22:11:52.067Z,63.01
2023-05-16T22:14:20.068Z,63.05
2023-05-16T22:16:48.201Z,62.95
2023-05-16T22:19:16.164Z,62.86
2023-05-16T22:21:44.428Z,62.94
2023-05-16T22:24:12.332Z,62.89
2023-05-16T22:26:40.608Z,62.80
2023-05-16T22:29:08.567Z,62.92
2023-05-16T22:31:36.441Z,62.75
2023-05-16T22:34:04.511Z,62.81
2023-05-16T22:36:32.628Z,62.77
2023-05-16T22:39:00.563Z,62.85
2023-05-16T22:41:31.306Z,62.64
2023-05-16T22:43:59.211Z,62.83
2023-05-16T22:46:27.250Z,62.81
2023-05-16T22:48:55.208Z,62.78
2023-05-16T22:51:23.360Z,62.82
2023-05-16T22:53:51.222Z,62.85
2023-05-16T22:56:19.084Z,62.96
2023-05-16T22:58:47.124Z,62.99
2023-05-16T23:01:15.256Z,62.90
2023-05-16T23:03:43.479Z,62.99
2023-05-16T23:06:11.514Z,63.07
2023-05-16T23:08:39.519Z,63.03
2023-05-16T23:11:07.491Z,63.03
2023-05-16T23:13:35.592Z,63.09
2023-05-16T23:16:03.552Z,63.03
2023-05-16T23:18:31.601Z,63.14
2023-05-16T23:20:59.839Z,63.22
2023-05-16T23:23:27.799Z,63.21
2023-05-16T23:25:55.674Z,63.18
2023-05-16T23:28:23.720Z,63.29
2023-05-16T23:30:51.615Z,63.16
2023-05-16T23:33:19.654Z,63.30
2023-05-16T23:35:47.684Z,63.30
2023-05-16T23:38:16.049Z,63.24
2023-05-16T23:40:44.010Z,63.25
2023-05-16T23:43:11.869Z,63.18
2023-05-16T23:45:39.926Z,63.37
2023-05-16T23:48:08.095Z,63.29
2023-05-16T23:50:36.109Z,63.32
2023-05-16T23:53:04.392Z,63.36
2023-05-16T23:55:32.360Z,63.29
2023-05-16T23:58:00.305Z,63.34
